Time;durP1;ratioP1;P1;durP2;ratioP2;P2;SDS_P1;SDS_P2;PMS_P1;PMS_P2;Temp;Humidity;BMP_temperature;BMP_pressure;BME280_temperature;BME280_humidity;BME280_pressure;Samples;Min_cycle;Max_cycle;Signal;HPM_P1;HPM_P2
2023/01/19 00:00:03;;;;;;;5.93;4.43;;;;;;;-0.42;100.00;95184.03;5042383;28;20207;-78
2023/01/19 00:02:34;;;;;;;6.37;4.40;;;;;;;-0.44;100.00;95181.59;5045642;28;20211;-78
2023/01/19 00:05:02;;;;;;;7.97;4.27;;;;;;;-0.39;100.00;95184.47;5049397;28;20233;-78
2023/01/19 00:07:30;;;;;;;7.23;4.30;;;;;;;-0.42;100.00;95179.53;5047065;28;20207;-78
2023/01/19 00:09:57;;;;;;;8.67;4.63;;;;;;;-0.43;100.00;95185.88;5033901;28;20300;-78
2023/01/19 00:12:24;;;;;;;5.80;4.07;;;;;;;-0.43;100.00;95188.53;5048529;28;20198;-78
2023/01/19 00:14:51;;;;;;;8.50;4.70;;;;;;;-0.44;100.00;95194.03;5048302;28;20271;-78
2023/01/19 00:17:18;;;;;;;7.57;4.13;;;;;;;-0.43;100.00;95190.38;5048927;28;20221;-78
2023/01/19 00:19:46;;;;;;;6.63;4.33;;;;;;;-0.37;100.00;95192.25;5050126;28;20213;-78
2023/01/19 00:22:13;;;;;;;9.33;4.47;;;;;;;-0.36;100.00;95196.53;5040902;28;20202;-78
2023/01/19 00:24:40;;;;;;;7.70;4.47;;;;;;;-0.37;100.00;95202.84;5051442;28;20234;-78
2023/01/19 00:27:07;;;;;;;6.90;3.90;;;;;;;-0.41;100.00;95197.09;5049248;28;20202;-78
2023/01/19 00:29:34;;;;;;;5.70;3.97;;;;;;;-0.33;100.00;95203.28;5050001;28;20225;-78
2023/01/19 00:32:01;;;;;;;6.67;3.93;;;;;;;-0.39;100.00;95207.53;5046438;28;20205;-78
2023/01/19 00:34:35;;;;;;;6.10;3.93;;;;;;;-0.45;100.00;95190.56;5043711;28;20211;-78
2023/01/19 00:37:04;;;;;;;5.20;3.83;;;;;;;-0.36;100.00;95203.66;5045740;28;20233;-78
2023/01/19 00:39:31;;;;;;;6.97;4.47;;;;;;;-0.31;100.00;95196.78;5047403;28;20281;-78
2023/01/19 00:44:43;;;;;;;8.33;4.53;;;;;;;-0.28;100.00;95208.84;5047327;28;20210;-77
2023/01/19 00:47:10;;;;;;;6.47;4.23;;;;;;;-0.27;100.00;95206.00;5045772;28;20206;-78
2023/01/19 00:49:37;;;;;;;8.77;4.77;;;;;;;-0.23;100.00;95209.06;5039313;28;20300;-78
2023/01/19 00:52:06;;;;;;;6.13;4.43;;;;;;;-0.24;100.00;95210.09;5053223;28;20199;-78
2023/01/19 00:54:33;;;;;;;6.83;4.20;;;;;;;-0.26;100.00;95212.94;5049403;28;20248;-78
2023/01/19 00:57:00;;;;;;;6.10;4.10;;;;;;;-0.26;100.00;95212.13;5038299;28;20218;-78
2023/01/19 00:59:27;;;;;;;6.07;4.40;;;;;;;-0.24;100.00;95202.94;5040436;28;20256;-78
2023/01/19 01:01:54;;;;;;;7.50;4.80;;;;;;;-0.18;100.00;95207.50;5047661;28;20241;-78
2023/01/19 01:04:21;;;;;;;5.73;4.40;;;;;;;-0.23;100.00;95203.78;5039439;28;20198;-78
2023/01/19 01:06:48;;;;;;;7.90;4.00;;;;;;;-0.18;100.00;95199.56;5040255;28;20194;-78
2023/01/19 01:09:16;;;;;;;7.30;4.90;;;;;;;-0.26;100.00;95205.00;5037224;28;20226;-78
2023/01/19 01:11:43;;;;;;;7.10;4.83;;;;;;;-0.20;100.00;95204.22;5043721;28;20230;-78
2023/01/19 01:14:12;;;;;;;6.63;4.67;;;;;;;-0.23;100.00;95214.38;5045886;28;20206;-78
2023/01/19 01:16:40;;;;;;;6.70;4.47;;;;;;;-0.23;100.00;95215.19;5046762;28;20245;-78
2023/01/19 01:19:07;;;;;;;8.07;4.60;;;;;;;-0.23;100.00;95215.19;5045380;28;20298;-78
2023/01/19 01:21:34;;;;;;;6.50;4.50;;;;;;;-0.24;100.00;95218.88;5048382;28;20264;-78
2023/01/19 01:24:01;;;;;;;8.03;4.67;;;;;;;-0.23;100.00;95228.47;5043541;28;20293;-78
2023/01/19 01:26:29;;;;;;;5.90;4.03;;;;;;;-0.22;100.00;95226.63;5047022;28;20206;-78
2023/01/19 01:28:56;;;;;;;5.27;3.60;;;;;;;-0.21;100.00;95229.09;5044441;28;20297;-78
2023/01/19 01:31:23;;;;;;;5.17;3.70;;;;;;;-0.15;100.00;95222.19;5049226;28;20207;-78
2023/01/19 01:33:50;;;;;;;7.50;4.13;;;;;;;-0.15;100.00;95233.63;5046117;28;20201;-78
2023/01/19 01:36:19;;;;;;;6.37;4.10;;;;;;;-0.12;100.00;95229.78;5044955;28;20260;-78
2023/01/19 01:38:46;;;;;;;4.87;3.77;;;;;;;-0.18;100.00;95223.44;5045844;28;20216;-78
2023/01/19 01:41:13;;;;;;;4.90;3.17;;;;;;;-0.18;100.00;95227.91;5045238;28;20199;-78
2023/01/19 01:43:47;;;;;;;5.37;3.67;;;;;;;-0.17;100.00;95232.22;5043488;28;20210;-78
2023/01/19 01:46:15;;;;;;;6.40;4.03;;;;;;;-0.16;100.00;95232.00;5044031;28;20257;-78
2023/01/19 01:48:50;;;;;;;4.93;3.73;;;;;;;-0.18;100.00;95228.72;5033819;28;20206;-78
2023/01/19 01:51:25;;;;;;;6.00;4.10;;;;;;;-0.19;100.00;95232.41;5035766;28;20205;-78
2023/01/19 01:53:59;;;;;;;5.93;4.23;;;;;;;-0.17;100.00;95235.66;5044923;28;20510;-78
2023/01/19 01:56:32;;;;;;;5.13;3.73;;;;;;;-0.16;100.00;95237.28;5041166;28;20314;-78
2023/01/19 01:59:06;;;;;;;5.33;3.80;;;;;;;-0.13;100.00;95241.41;5041927;28;20198;-78
2023/01/19 02:04:18;;;;;;;5.53;3.80;;;;;;;-0.13;100.00;95236.94;5044915;28;20212;-78
2023/01/19 02:15:04;;;;;;;5.47;3.90;;;;;;;-0.18;100.00;95230.56;5041254;28;20207;-78
2023/01/19 02:17:31;;;;;;;6.37;4.17;;;;;;;-0.16;100.00;95233.81;5039390;28;20215;-78
2023/01/19 02:19:58;;;;;;;6.87;4.17;;;;;;;-0.17;100.00;95225.03;5044205;28;20222;-78
2023/01/19 02:22:37;;;;;;;4.40;3.37;;;;;;;-0.19;100.00;95231.56;5042429;28;20215;-78
2023/01/19 02:25:07;;;;;;;7.13;3.60;;;;;;;-0.25;100.00;95235.78;5044119;28;20225;-78
2023/01/19 02:27:35;;;;;;;6.00;3.80;;;;;;;-0.24;100.00;95233.97;5044457;28;20218;-78
2023/01/19 02:30:03;;;;;;;4.20;3.53;;;;;;;-0.13;100.00;95236.94;5042724;28;20264;-78
2023/01/19 02:32:30;;;;;;;5.50;3.53;;;;;;;-0.11;100.00;95240.22;5043602;28;20210;-78
2023/01/19 02:34:57;;;;;;;7.37;3.87;;;;;;;-0.04;100.00;95235.78;5047079;28;20271;-77
2023/01/19 02:37:28;;;;;;;5.87;3.63;;;;;;;-0.03;100.00;95250.69;5034380;28;20221;-77
2023/01/19 02:39:59;;;;;;;6.20;3.80;;;;;;;-0.09;100.00;95246.16;5057819;28;20293;-78
2023/01/19 02:42:32;;;;;;;9.00;3.73;;;;;;;-0.01;100.00;95256.63;5046097;28;20257;-78
2023/01/19 02:44:59;;;;;;;6.50;3.97;;;;;;;-0.05;100.00;95255.38;5044018;28;20212;-78
2023/01/19 02:47:26;;;;;;;5.67;3.73;;;;;;;-0.07;100.00;95251.25;5046003;28;20198;-78
2023/01/19 02:49:57;;;;;;;7.57;4.70;;;;;;;-0.13;100.00;95258.16;5047147;28;20210;-78
2023/01/19 02:52:24;;;;;;;6.93;4.13;;;;;;;-0.19;100.00;95260.75;5038710;28;20198;-78
2023/01/19 02:55:00;;;;;;;7.27;4.53;;;;;;;-0.20;100.00;95259.09;5041643;28;20198;-78
2023/01/19 02:57:42;;;;;;;7.33;4.20;;;;;;;-0.20;100.00;95254.63;5036227;28;20233;-78
2023/01/19 03:00:22;;;;;;;7.37;4.73;;;;;;;-0.29;100.00;95249.63;5048693;28;20256;-78
2023/01/19 03:03:00;;;;;;;6.80;4.73;;;;;;;-0.39;100.00;95242.00;5046843;28;20259;-78
2023/01/19 03:05:40;;;;;;;7.70;5.23;;;;;;;-0.42;100.00;95245.84;5041733;28;20208;-78
2023/01/19 03:08:14;;;;;;;7.37;4.90;;;;;;;-0.49;100.00;95252.91;5049747;28;20199;-78
2023/01/19 03:10:49;;;;;;;6.23;4.50;;;;;;;-0.50;100.00;95255.75;5046205;28;20233;-78
2023/01/19 03:13:27;;;;;;;6.53;4.47;;;;;;;-0.55;100.00;95256.31;5050117;28;20208;-78
2023/01/19 03:15:58;;;;;;;7.30;4.43;;;;;;;-0.57;100.00;95254.88;5047864;28;20198;-78
2023/01/19 03:18:29;;;;;;;6.03;4.07;;;;;;;-0.63;100.00;95256.44;5050858;28;20241;-78
2023/01/19 03:21:02;;;;;;;5.43;4.17;;;;;;;-0.68;100.00;95252.72;5045018;28;20213;-78
2023/01/19 03:23:32;;;;;;;6.17;4.10;;;;;;;-0.71;100.00;95247.78;5043518;28;20300;-78
2023/01/19 03:26:01;;;;;;;5.83;4.30;;;;;;;-0.69;100.00;95261.69;5050468;28;20236;-78
2023/01/19 03:28:30;;;;;;;8.37;4.20;;;;;;;-0.73;100.00;95255.09;5046328;28;20264;-78
2023/01/19 03:31:01;;;;;;;5.07;3.97;;;;;;;-0.76;100.00;95266.88;5042749;28;20206;-78
2023/01/19 03:33:32;;;;;;;5.87;4.13;;;;;;;-0.87;100.00;95259.44;5046031;28;20202;-78
2023/01/19 03:36:04;;;;;;;8.23;4.30;;;;;;;-0.85;100.00;95260.88;5049968;28;20195;-78
2023/01/19 03:38:35;;;;;;;5.70;3.93;;;;;;;-0.92;100.00;95273.22;5048715;28;20210;-78
2023/01/19 03:41:06;;;;;;;7.37;4.13;;;;;;;-0.94;100.00;95274.44;5046900;28;20202;-78
2023/01/19 03:43:38;;;;;;;7.03;3.93;;;;;;;-0.92;100.00;95275.06;5045919;28;20261;-78
2023/01/19 03:46:07;;;;;;;7.73;4.10;;;;;;;-0.91;100.00;95274.06;5039951;28;20203;-78
2023/01/19 03:48:35;;;;;;;7.20;3.40;;;;;;;-0.87;100.00;95281.47;5037365;28;20202;-78
2023/01/19 03:51:04;;;;;;;6.70;3.63;;;;;;;-0.89;100.00;95278.16;5057497;28;20293;-78
2023/01/19 03:53:31;;;;;;;5.23;3.63;;;;;;;-0.92;100.00;95275.88;5043795;28;20202;-78
2023/01/19 03:55:58;;;;;;;6.57;3.87;;;;;;;-0.90;100.00;95287.13;5044388;28;20276;-78
2023/01/19 03:58:25;;;;;;;5.00;3.60;;;;;;;-0.89;100.00;95282.66;5042401;28;20214;-78
2023/01/19 04:00:53;;;;;;;5.30;3.77;;;;;;;-0.87;100.00;95285.94;5038751;28;20209;-78
2023/01/19 04:03:20;;;;;;;4.37;3.30;;;;;;;-0.88;100.00;95282.47;5040277;28;20206;-78
2023/01/19 04:05:47;;;;;;;7.67;3.67;;;;;;;-0.90;100.00;95289.78;5031101;28;20256;-78
2023/01/19 04:08:14;;;;;;;6.60;3.43;;;;;;;-0.94;100.00;95291.16;5038618;28;20213;-78
2023/01/19 04:10:41;;;;;;;4.73;3.27;;;;;;;-0.93;100.00;95289.31;5044051;28;20242;-78
2023/01/19 04:13:08;;;;;;;4.63;3.30;;;;;;;-1.03;100.00;95275.56;5046611;28;20194;-78
2023/01/19 04:15:36;;;;;;;5.13;3.43;;;;;;;-0.99;100.00;95290.06;5046437;28;20210;-78
2023/01/19 04:18:07;;;;;;;4.20;3.30;;;;;;;-1.02;100.00;95293.09;5044766;28;20215;-78
2023/01/19 04:20:37;;;;;;;5.30;3.50;;;;;;;-1.05;100.00;95290.81;5045197;28;20221;-78
2023/01/19 04:23:06;;;;;;;4.87;3.20;;;;;;;-1.05;100.00;95294.28;5035689;28;20207;-78
2023/01/19 04:25:35;;;;;;;5.30;3.30;;;;;;;-1.06;100.00;95297.94;5040424;28;20238;-78
2023/01/19 04:28:02;;;;;;;5.50;3.30;;;;;;;-1.06;100.00;95289.97;5045111;28;20202;-78
2023/01/19 04:30:31;;;;;;;5.37;3.60;;;;;;;-1.16;100.00;95281.50;5045233;28;20201;-78
2023/01/19 04:32:59;;;;;;;6.60;3.80;;;;;;;-1.19;100.00;95284.50;5043935;28;20240;-78
2023/01/19 04:35:27;;;;;;;4.90;3.50;;;;;;;-1.20;100.00;95290.81;5047547;28;20206;-78
2023/01/19 04:37:54;;;;;;;6.10;3.57;;;;;;;-1.16;100.00;95298.22;5044720;28;20246;-78
2023/01/19 04:40:21;;;;;;;6.57;3.57;;;;;;;-1.20;100.00;95293.47;5040238;28;20195;-78
2023/01/19 04:42:49;;;;;;;5.83;3.73;;;;;;;-1.21;100.00;95299.78;5045565;28;20242;-78
2023/01/19 04:45:17;;;;;;;5.53;3.70;;;;;;;-1.25;100.00;95294.00;5043821;28;20241;-78
2023/01/19 04:47:44;;;;;;;6.47;4.23;;;;;;;-1.24;100.00;95300.94;5045719;28;20217;-78
2023/01/19 04:50:11;;;;;;;8.43;4.10;;;;;;;-1.19;100.00;95303.03;5039755;28;20203;-78
2023/01/19 04:52:42;;;;;;;5.57;3.63;;;;;;;-1.24;100.00;95314.19;5044275;28;20215;-78
2023/01/19 04:55:10;;;;;;;5.17;3.40;;;;;;;-1.20;100.00;95320.78;5054168;28;20328;-78
2023/01/19 04:57:37;;;;;;;4.63;3.80;;;;;;;-1.36;100.00;95304.25;5046740;28;20220;-78
2023/01/19 05:00:07;;;;;;;7.53;4.20;;;;;;;-1.26;100.00;95324.13;5048665;28;20198;-78
2023/01/19 05:02:34;;;;;;;12.50;8.50;;;;;;;-1.23;100.00;95321.13;5041777;28;20225;-78
2023/01/19 05:05:01;;;;;;;9.73;6.07;;;;;;;-1.25;100.00;95324.97;5046358;28;20209;-78
2023/01/19 05:07:28;;;;;;;7.53;4.87;;;;;;;-1.37;100.00;95321.13;5050888;28;20275;-78
2023/01/19 05:09:57;;;;;;;5.67;4.00;;;;;;;-1.33;100.00;95323.22;5047424;28;20304;-78
2023/01/19 05:12:23;;;;;;;5.10;3.67;;;;;;;-1.30;100.00;95330.00;5030022;28;20202;-78
2023/01/19 05:14:50;;;;;;;7.33;4.60;;;;;;;-1.22;100.00;95337.84;5037358;28;20206;-78
2023/01/19 05:17:17;;;;;;;6.47;4.50;;;;;;;-1.18;100.00;95336.47;5046077;28;20245;-78
2023/01/19 05:19:44;;;;;;;6.10;3.73;;;;;;;-1.23;100.00;95338.84;5048858;28;20268;-78
2023/01/19 05:22:11;;;;;;;5.70;4.03;;;;;;;-1.19;100.00;95340.94;5044671;28;20201;-78
2023/01/19 05:24:38;;;;;;;6.80;4.17;;;;;;;-1.30;100.00;95337.94;5040869;28;20238;-78
2023/01/19 05:27:07;;;;;;;7.37;4.57;;;;;;;-1.31;100.00;95333.66;5041914;28;20202;-78
2023/01/19 05:29:34;;;;;;;4.90;4.17;;;;;;;-1.28;100.00;95344.72;5048035;28;20275;-78
2023/01/19 05:32:01;;;;;;;6.83;4.87;;;;;;;-1.25;100.00;95359.41;5046796;28;20203;-78
2023/01/19 05:34:28;;;;;;;7.77;6.13;;;;;;;-1.22;100.00;95351.09;5034566;28;20214;-78
2023/01/19 05:36:55;;;;;;;7.37;4.37;;;;;;;-1.16;100.00;95353.00;5041320;28;20248;-78
2023/01/19 05:39:22;;;;;;;6.77;4.37;;;;;;;-1.20;100.00;95354.38;5034868;28;20210;-78
2023/01/19 05:41:49;;;;;;;7.83;4.73;;;;;;;-1.20;100.00;95349.91;5031369;28;20503;-78
2023/01/19 05:44:18;;;;;;;5.83;4.33;;;;;;;-1.11;100.00;95349.81;5046009;28;20210;-78
2023/01/19 05:46:45;;;;;;;7.43;4.83;;;;;;;-1.14;100.00;95358.94;5048437;28;20213;-78
2023/01/19 05:49:12;;;;;;;7.13;4.70;;;;;;;-1.22;100.00;95364.34;5030509;28;20256;-79
2023/01/19 05:51:44;;;;;;;9.33;4.27;;;;;;;-1.32;100.00;95363.78;5044679;28;20293;-78
2023/01/19 05:54:14;;;;;;;5.77;4.27;;;;;;;-1.34;100.00;95363.13;5044207;28;20221;-79
2023/01/19 05:56:41;;;;;;;8.40;4.00;;;;;;;-1.18;100.00;95365.59;5042560;28;20271;-78
2023/01/19 05:59:08;;;;;;;6.57;4.27;;;;;;;-1.25;100.00;95367.34;5044761;28;20202;-78
2023/01/19 06:01:37;;;;;;;7.27;4.47;;;;;;;-1.39;100.00;95370.81;5037844;28;20194;-78
2023/01/19 06:04:07;;;;;;;6.93;4.00;;;;;;;-1.47;100.00;95376.19;5038969;28;20206;-78
2023/01/19 06:06:34;;;;;;;7.27;4.50;;;;;;;-1.50;100.00;95379.16;5039572;28;20282;-78
2023/01/19 06:09:01;;;;;;;7.70;4.50;;;;;;;-1.44;100.00;95386.38;5037597;28;20217;-78
2023/01/19 06:11:28;;;;;;;7.53;4.80;;;;;;;-1.44;100.00;95378.44;5044778;28;20230;-79
2023/01/19 06:13:55;;;;;;;9.07;4.97;;;;;;;-1.44;100.00;95394.31;5042327;28;20225;-79
2023/01/19 06:16:22;;;;;;;6.27;4.43;;;;;;;-1.44;100.00;95386.38;5039194;28;20248;-79
2023/01/19 06:18:51;;;;;;;8.40;4.77;;;;;;;-1.43;100.00;95401.28;5029014;28;20229;-79
2023/01/19 06:21:18;;;;;;;9.33;5.50;;;;;;;-1.45;100.00;95400.66;5040262;28;20300;-79
2023/01/19 06:23:45;;;;;;;7.23;4.40;;;;;;;-1.44;100.00;95394.31;5041814;28;20210;-78
2023/01/19 06:26:12;;;;;;;8.10;4.60;;;;;;;-1.49;100.00;95405.47;5045585;28;20235;-78
2023/01/19 06:28:39;;;;;;;7.70;4.50;;;;;;;-1.61;100.00;95386.53;5043352;28;20223;-79
2023/01/19 06:31:07;;;;;;;5.97;4.13;;;;;;;-1.65;100.00;95398.50;5032652;28;20211;-78
2023/01/19 06:33:34;;;;;;;8.30;5.00;;;;;;;-1.58;100.00;95403.91;5043009;28;20229;-78
2023/01/19 06:36:02;;;;;;;6.77;4.37;;;;;;;-1.54;100.00;95413.13;5041988;28;20276;-79
2023/01/19 06:38:29;;;;;;;7.70;4.20;;;;;;;-1.54;100.00;95424.56;5044570;28;20236;-78
2023/01/19 06:40:58;;;;;;;5.63;3.93;;;;;;;-1.51;100.00;95426.00;5043031;28;20212;-79
2023/01/19 06:43:26;;;;;;;5.37;3.83;;;;;;;-1.47;100.00;95431.78;5039013;28;20202;-78
2023/01/19 06:45:54;;;;;;;6.57;4.47;;;;;;;-1.49;100.00;95437.25;5040770;28;20227;-78
2023/01/19 06:48:22;;;;;;;6.57;4.40;;;;;;;-1.55;100.00;95432.66;5042129;28;20206;-78
2023/01/19 06:50:49;;;;;;;5.40;3.87;;;;;;;-1.46;100.00;95449.31;5043022;28;20211;-78
2023/01/19 06:53:21;;;;;;;6.37;4.23;;;;;;;-1.55;100.00;95430.03;5044060;28;20199;-78
2023/01/19 06:55:48;;;;;;;7.70;4.67;;;;;;;-1.41;100.00;95452.22;5040409;28;20210;-78
2023/01/19 06:58:15;;;;;;;8.23;5.27;;;;;;;-1.44;100.00;95453.41;5038383;28;20233;-78
2023/01/19 07:00:43;;;;;;;7.07;4.97;;;;;;;-1.52;100.00;95449.00;5032663;28;20249;-78
2023/01/19 07:03:19;;;;;;;6.60;4.57;;;;;;;-1.59;100.00;95461.31;5045561;28;20224;-79
2023/01/19 07:05:48;;;;;;;6.60;4.17;;;;;;;-1.53;100.00;95471.16;5042441;28;20220;-78
2023/01/19 07:08:15;;;;;;;6.27;4.33;;;;;;;-1.61;100.00;95460.66;5034708;28;20214;-79
2023/01/19 07:10:44;;;;;;;8.27;4.20;;;;;;;-1.52;100.00;95469.34;5048066;28;20329;-78
2023/01/19 07:13:11;;;;;;;6.47;4.30;;;;;;;-1.57;100.00;95471.72;5045814;28;20210;-78
2023/01/19 07:15:38;;;;;;;8.43;4.70;;;;;;;-1.59;100.00;95477.19;5037808;28;20210;-78
2023/01/19 07:18:06;;;;;;;9.67;4.90;;;;;;;-1.54;100.00;95489.91;5034490;28;20228;-79
2023/01/19 07:20:34;;;;;;;10.50;4.97;;;;;;;-1.55;100.00;95489.06;5042399;28;20197;-79
2023/01/19 07:23:01;;;;;;;8.33;4.83;;;;;;;-1.66;100.00;95478.91;5042596;28;20205;-79
2023/01/19 07:25:29;;;;;;;9.70;4.47;;;;;;;-1.65;100.00;95483.19;5047070;28;20319;-79
2023/01/19 07:27:58;;;;;;;11.43;5.40;;;;;;;-1.66;100.00;95484.19;5043788;28;20201;-79
2023/01/19 07:30:26;;;;;;;7.20;4.57;;;;;;;-1.65;100.00;95483.19;5045263;28;20207;-79
2023/01/19 07:32:57;;;;;;;7.77;5.20;;;;;;;-1.60;100.00;95486.13;5041767;28;20281;-79
2023/01/19 07:35:24;;;;;;;7.03;4.47;;;;;;;-1.54;100.00;95490.72;5038561;28;20199;-79
2023/01/19 07:37:51;;;;;;;8.83;5.10;;;;;;;-1.56;100.00;95482.13;5048335;28;20218;-79
2023/01/19 07:40:19;;;;;;;8.70;5.20;;;;;;;-1.59;100.00;95486.94;5040928;28;20210;-79
2023/01/19 07:42:47;;;;;;;8.47;4.93;;;;;;;-1.63;100.00;95490.97;5039254;28;20203;-79
2023/01/19 07:45:18;;;;;;;7.80;4.87;;;;;;;-1.71;100.00;95491.84;5045417;28;20207;-79
2023/01/19 07:47:47;;;;;;;9.03;5.00;;;;;;;-1.72;100.00;95495.47;5045464;28;20206;-79
2023/01/19 07:50:16;;;;;;;9.03;5.47;;;;;;;-1.63;100.00;95490.97;5039739;28;20218;-79
2023/01/19 07:52:43;;;;;;;11.33;6.43;;;;;;;-1.67;100.00;95485.19;5042815;28;20217;-79
2023/01/19 07:55:10;;;;;;;8.57;5.73;;;;;;;-1.65;100.00;95477.91;5055332;28;20459;-79
2023/01/19 07:57:37;;;;;;;10.10;5.33;;;;;;;-1.65;100.00;95479.72;5032346;28;20202;-79
2023/01/19 08:00:07;;;;;;;6.90;5.20;;;;;;;-1.61;100.00;95486.28;5053898;28;20211;-79
2023/01/19 08:02:41;;;;;;;10.43;5.37;;;;;;;-1.56;100.00;95489.25;5041379;28;20281;-79
2023/01/19 08:05:09;;;;;;;8.43;5.20;;;;;;;-1.45;100.00;95490.66;5033812;28;20209;-79
2023/01/19 08:07:36;;;;;;;7.83;5.03;;;;;;;-1.40;100.00;95509.47;5034885;28;20194;-79
2023/01/19 08:10:03;;;;;;;10.10;6.63;;;;;;;-1.47;100.00;95500.59;5045195;28;20293;-79
2023/01/19 08:12:30;;;;;;;8.07;5.67;;;;;;;-1.43;100.00;95518.59;5033890;28;20210;-79
2023/01/19 08:14:57;;;;;;;8.13;5.50;;;;;;;-1.55;100.00;95497.03;5057137;28;20211;-79
2023/01/19 08:17:24;;;;;;;12.93;6.37;;;;;;;-1.50;100.00;95512.38;5039752;28;20205;-79
2023/01/19 08:19:53;;;;;;;8.97;5.53;;;;;;;-1.47;100.00;95524.44;5044100;28;20234;-79
2023/01/19 08:22:19;;;;;;;8.67;5.50;;;;;;;-1.36;100.00;95524.03;5042794;28;20199;-79
2023/01/19 08:24:46;;;;;;;11.57;5.23;;;;;;;-1.25;100.00;95531.53;5046096;28;20235;-79
2023/01/19 08:27:14;;;;;;;11.27;7.27;;;;;;;-1.23;100.00;95530.38;5047021;28;20274;-79
2023/01/19 08:29:43;;;;;;;8.07;5.50;;;;;;;-1.20;100.00;95527.38;5039569;28;20225;-79
2023/01/19 08:32:10;;;;;;;11.67;5.77;;;;;;;-1.23;100.00;95524.25;5039892;28;20270;-79
2023/01/19 08:34:37;;;;;;;9.10;5.67;;;;;;;-1.23;100.00;95534.84;5041217;28;20255;-79
2023/01/19 08:37:08;;;;;;;10.13;6.07;;;;;;;-1.27;100.00;95530.88;5039672;28;20198;-79
2023/01/19 08:39:35;;;;;;;10.30;6.10;;;;;;;-1.28;100.00;95539.84;5046316;28;20307;-79
2023/01/19 08:42:02;;;;;;;11.13;6.13;;;;;;;-1.37;100.00;95522.38;5042630;28;20202;-79
2023/01/19 08:44:29;;;;;;;7.93;5.30;;;;;;;-1.31;100.00;95524.31;5048990;28;20203;-79
2023/01/19 08:46:56;;;;;;;9.77;5.73;;;;;;;-1.28;100.00;95516.03;5039747;28;20207;-79
2023/01/19 08:49:24;;;;;;;10.20;5.70;;;;;;;-1.23;100.00;95521.59;5044458;28;20260;-79
2023/01/19 08:51:51;;;;;;;8.03;5.50;;;;;;;-1.14;100.00;95525.84;5040864;28;20205;-79
2023/01/19 08:54:20;;;;;;;9.67;5.50;;;;;;;-1.08;100.00;95527.75;5042458;28;20217;-79
2023/01/19 08:56:47;;;;;;;9.40;5.33;;;;;;;-1.07;100.00;95520.63;5040122;28;20215;-79
2023/01/19 08:59:15;;;;;;;8.03;5.33;;;;;;;-1.12;100.00;95510.59;5046064;28;20214;-79
2023/01/19 09:01:43;;;;;;;9.37;5.77;;;;;;;-0.98;100.00;95517.75;5037319;28;20210;-79
2023/01/19 09:04:10;;;;;;;9.63;5.70;;;;;;;-0.89;100.00;95508.72;5043721;28;20194;-79
2023/01/19 09:06:37;;;;;;;9.93;5.53;;;;;;;-0.80;100.00;95499.69;5031376;28;20230;-79
2023/01/19 09:09:04;;;;;;;7.20;4.93;;;;;;;-0.76;100.00;95503.59;5041348;28;20203;-79
2023/01/19 09:11:36;;;;;;;7.43;5.17;;;;;;;-0.73;100.00;95502.44;5048340;28;20301;-79
2023/01/19 09:14:04;;;;;;;8.57;5.30;;;;;;;-0.62;100.00;95506.47;5034298;28;20193;-79
2023/01/19 09:16:31;;;;;;;6.27;4.87;;;;;;;-0.50;100.00;95511.13;5038208;28;20268;-79
2023/01/19 09:18:58;;;;;;;9.57;4.30;;;;;;;-0.41;100.00;95514.50;5040629;28;20245;-79
2023/01/19 09:21:25;;;;;;;8.97;4.83;;;;;;;-0.33;100.00;95522.38;5033119;28;20246;-79
2023/01/19 09:23:53;;;;;;;6.50;4.43;;;;;;;-0.44;99.90;95504.28;5039346;28;20211;-79
2023/01/19 09:26:21;;;;;;;8.63;4.43;;;;;;;-0.42;99.90;95510.19;5045102;28;20249;-79
2023/01/19 09:28:49;;;;;;;6.83;4.67;;;;;;;-0.37;100.00;95505.19;5049219;28;20279;-79
2023/01/19 09:31:16;;;;;;;7.17;4.90;;;;;;;-0.35;99.57;95497.88;5036949;28;20226;-79
2023/01/19 09:33:43;;;;;;;6.10;4.27;;;;;;;-0.27;99.55;95505.75;5041527;28;20283;-79
2023/01/19 09:36:11;;;;;;;7.47;4.70;;;;;;;-0.33;99.58;95500.31;5043190;28;20215;-79
2023/01/19 09:38:38;;;;;;;6.20;4.07;;;;;;;-0.37;98.35;95499.88;5038561;28;20227;-79
2023/01/19 09:41:18;;;;;;;6.93;4.90;;;;;;;-0.31;100.00;95499.13;5048764;28;20225;-79
2023/01/19 09:43:51;;;;;;;7.97;4.90;;;;;;;-0.28;100.00;95501.44;5047737;28;20218;-79
2023/01/19 09:46:24;;;;;;;9.20;4.70;;;;;;;-0.22;100.00;95497.22;5046260;28;20210;-79
2023/01/19 09:48:52;;;;;;;7.73;4.50;;;;;;;-0.13;99.98;95512.03;5042409;28;20217;-79
2023/01/19 09:51:22;;;;;;;7.37;4.83;;;;;;;-0.16;99.54;95513.22;5045953;28;20209;-79
2023/01/19 09:54:05;;;;;;;7.93;5.37;;;;;;;-0.23;99.04;95512.31;5030702;28;20211;-79
2023/01/19 09:56:33;;;;;;;8.03;4.93;;;;;;;-0.16;99.68;95517.69;5032402;28;20275;-79
2023/01/19 09:59:12;;;;;;;10.77;5.03;;;;;;;-0.21;99.59;95505.00;5044889;28;20252;-79
2023/01/19 10:01:51;;;;;;;7.47;5.20;;;;;;;-0.26;99.80;95496.78;5040085;28;20206;-79
2023/01/19 10:04:27;;;;;;;6.73;4.80;;;;;;;-0.22;98.23;95508.66;5043059;28;20204;-79
2023/01/19 10:07:05;;;;;;;11.27;5.03;;;;;;;-0.25;97.61;95514.31;5042535;28;20207;-79
2023/01/19 10:09:38;;;;;;;9.23;5.33;;;;;;;-0.30;98.98;95506.09;5047405;28;20225;-79
2023/01/19 10:12:15;;;;;;;9.07;4.60;;;;;;;-0.22;97.56;95518.44;5045447;28;20230;-79
2023/01/19 10:14:51;;;;;;;8.27;4.77;;;;;;;-0.26;97.60;95514.53;5036697;28;20238;-79
2023/01/19 10:17:27;;;;;;;7.47;4.20;;;;;;;-0.22;98.61;95508.66;5037804;28;20202;-79
2023/01/19 10:19:58;;;;;;;6.70;5.00;;;;;;;-0.15;97.45;95516.69;5048705;28;20232;-79
2023/01/19 10:22:28;;;;;;;5.60;4.13;;;;;;;-0.10;96.91;95509.84;5048043;28;20281;-79
2023/01/19 10:24:59;;;;;;;9.57;5.17;;;;;;;-0.06;96.96;95513.75;5041650;28;20236;-79
2023/01/19 10:27:30;;;;;;;10.47;4.73;;;;;;;-0.03;96.16;95507.25;5052904;28;20221;-79
2023/01/19 10:30:00;;;;;;;9.63;5.13;;;;;;;-0.15;93.56;95504.25;5046933;28;20232;-78
2023/01/19 10:32:30;;;;;;;6.03;4.40;;;;;;;-0.02;94.72;95514.22;5043447;28;20209;-78
2023/01/19 10:34:59;;;;;;;7.03;4.73;;;;;;;0.00;94.71;95502.38;5045088;28;20297;-78
2023/01/19 10:37:31;;;;;;;8.43;4.73;;;;;;;0.14;94.30;95505.22;5043549;28;20198;-78
2023/01/19 10:40:02;;;;;;;7.60;4.67;;;;;;;0.30;96.10;95495.19;5044113;28;20246;-77
2023/01/19 10:42:30;;;;;;;22.63;10.53;;;;;;;0.43;94.45;95507.78;5044250;28;20214;-77
2023/01/19 10:44:58;;;;;;;9.47;5.93;;;;;;;0.47;94.59;95503.75;5042965;28;20212;-77
2023/01/19 10:47:33;;;;;;;10.60;6.30;;;;;;;0.48;94.53;95510.72;5044624;28;20258;-77
2023/01/19 10:50:07;;;;;;;11.90;6.00;;;;;;;0.41;94.58;95483.28;5038229;28;20195;-77
2023/01/19 10:52:38;;;;;;;10.33;5.87;;;;;;;0.61;94.79;95500.22;5027845;28;20208;-77
2023/01/19 10:55:08;;;;;;;7.10;5.10;;;;;;;0.77;92.64;95503.66;5031288;28;20206;-77
2023/01/19 10:57:37;;;;;;;9.43;5.37;;;;;;;0.90;91.59;95501.09;5036539;28;20212;-77
2023/01/19 11:00:27;;;;;;;14.03;7.60;;;;;;;1.02;90.01;95502.25;5040981;28;20283;-78
2023/01/19 11:02:54;;;;;;;7.70;4.80;;;;;;;1.12;89.58;95492.06;5055529;28;20220;-77
2023/01/19 11:05:24;;;;;;;6.47;4.33;;;;;;;1.14;87.11;95496.19;5035428;28;20205;-77
2023/01/19 11:07:51;;;;;;;9.37;4.37;;;;;;;1.15;86.73;95497.00;5050918;28;20210;-77
2023/01/19 11:10:23;;;;;;;9.80;4.20;;;;;;;1.14;83.99;95490.88;5047358;28;20233;-77
2023/01/19 11:12:59;;;;;;;11.03;5.17;;;;;;;1.35;86.46;95498.00;5047384;28;20233;-77
2023/01/19 11:15:33;;;;;;;8.77;4.83;;;;;;;1.38;82.59;95497.59;5046596;28;20213;-77
2023/01/19 11:18:02;;;;;;;7.60;4.60;;;;;;;1.36;82.76;95486.31;5046922;28;20205;-77
2023/01/19 11:20:35;;;;;;;7.60;5.23;;;;;;;1.42;84.92;95495.38;5049781;28;20221;-77
2023/01/19 11:23:06;;;;;;;8.73;5.23;;;;;;;1.48;84.89;95490.09;5051053;28;20224;-77
2023/01/19 11:25:35;;;;;;;8.83;5.10;;;;;;;1.64;83.87;95488.13;5043569;28;20320;-77
2023/01/19 11:28:03;;;;;;;8.87;4.23;;;;;;;1.82;82.98;95488.44;5043248;28;20206;-76
2023/01/19 11:30:32;;;;;;;6.87;4.00;;;;;;;1.59;80.72;95483.41;5039997;28;20205;-76
2023/01/19 11:32:59;;;;;;;8.93;4.90;;;;;;;1.44;81.44;95488.03;5042096;28;20210;-76
2023/01/19 11:35:36;;;;;;;5.53;4.17;;;;;;;1.41;81.02;95486.56;5042931;28;20201;-76
2023/01/19 11:38:19;;;;;;;8.17;4.10;;;;;;;1.41;81.74;95478.59;5046800;28;20307;-77
2023/01/19 11:40:57;;;;;;;5.93;4.40;;;;;;;1.44;81.51;95480.88;5044651;28;20280;-76
2023/01/19 11:43:28;;;;;;;6.90;5.10;;;;;;;1.29;80.39;95474.81;5050233;28;20217;-76
2023/01/19 11:45:58;;;;;;;6.53;4.07;;;;;;;1.32;81.62;95471.78;5043055;28;20205;-77
2023/01/19 11:48:32;;;;;;;7.70;4.77;;;;;;;1.35;83.80;95471.41;5044224;28;20209;-77